createdAt,value
2018-03-23T00:03:42.442Z,4.54
2018-03-23T00:08:45.130Z,4.57
2018-03-23T00:13:47.698Z,4.66
2018-03-23T00:18:50.173Z,4.57
2018-03-23T00:23:52.701Z,4.58
2018-03-23T00:28:55.198Z,4.53
2018-03-23T00:33:57.710Z,4.32
2018-03-23T00:39:00.166Z,4.30
2018-03-23T00:44:02.665Z,4.36
2018-03-23T00:49:05.169Z,4.25
2018-03-23T00:54:07.656Z,4.29
2018-03-23T00:59:10.133Z,4.29
2018-03-23T01:04:12.602Z,4.20
2018-03-23T01:09:15.176Z,4.17
2018-03-23T01:14:17.749Z,4.15
2018-03-23T01:19:20.247Z,4.10
2018-03-23T01:24:22.801Z,4.17
2018-03-23T01:29:25.345Z,4.07
2018-03-23T01:34:27.816Z,4.07
2018-03-23T01:39:30.273Z,4.03
2018-03-23T01:44:32.729Z,3.99
2018-03-23T01:49:35.207Z,3.95
2018-03-23T01:54:37.686Z,3.96
2018-03-23T01:59:40.159Z,3.97
2018-03-23T02:04:42.637Z,3.96
2018-03-23T02:09:45.145Z,3.88
2018-03-23T02:14:48.452Z,3.89
2018-03-23T02:19:50.958Z,3.75
2018-03-23T02:24:53.420Z,3.64
2018-03-23T02:29:55.880Z,3.57
2018-03-23T02:34:58.393Z,3.41
2018-03-23T02:40:00.888Z,3.36
2018-03-23T02:45:03.366Z,3.29
2018-03-23T02:50:05.853Z,3.27
2018-03-23T02:55:08.307Z,3.21
2018-03-23T03:00:10.769Z,3.24
2018-03-23T03:05:13.269Z,3.20
2018-03-23T03:10:15.778Z,3.17
2018-03-23T03:15:18.258Z,3.11
2018-03-23T03:20:20.748Z,3.10
2018-03-23T03:25:23.236Z,3.15
2018-03-23T03:30:25.734Z,3.17
2018-03-23T03:35:28.224Z,3.20
2018-03-23T03:40:31.669Z,3.19
2018-03-23T03:45:34.139Z,3.12
2018-03-23T03:50:36.635Z,3.06
2018-03-23T03:55:39.107Z,3.05
2018-03-23T04:00:41.572Z,2.99
2018-03-23T04:05:44.088Z,3.04
2018-03-23T04:10:46.642Z,3.06
2018-03-23T04:15:49.178Z,2.98
2018-03-23T04:20:51.682Z,2.99
2018-03-23T04:25:54.229Z,3.03
2018-03-23T04:30:56.677Z,3.04
2018-03-23T04:35:59.225Z,3.01
2018-03-23T04:41:01.700Z,2.94
2018-03-23T04:46:04.215Z,2.91
2018-03-23T04:51:06.700Z,2.85
2018-03-23T04:56:09.143Z,2.86
2018-03-23T05:01:11.610Z,2.85
2018-03-23T05:06:14.105Z,2.86
2018-03-23T05:11:16.718Z,2.89
2018-03-23T05:16:19.352Z,2.88
2018-03-23T05:21:21.893Z,2.87
2018-03-23T05:26:24.427Z,2.90
2018-03-23T05:31:26.888Z,2.87
2018-03-23T05:36:29.367Z,2.86
2018-03-23T05:41:32.591Z,2.88
2018-03-23T05:46:35.066Z,2.94
2018-03-23T05:51:37.866Z,3.03
2018-03-23T05:56:40.368Z,3.15
2018-03-23T06:01:42.856Z,3.23
2018-03-23T06:06:45.448Z,3.38
2018-03-23T06:11:47.987Z,3.46
2018-03-23T06:16:50.474Z,3.50
2018-03-23T06:21:53.036Z,3.73
2018-03-23T06:26:55.516Z,3.80
2018-03-23T06:31:58.004Z,3.87
2018-03-23T06:37:00.492Z,3.97
2018-03-23T06:42:02.971Z,4.10
2018-03-23T06:47:05.461Z,3.97
2018-03-23T06:52:07.965Z,3.74
2018-03-23T06:57:10.471Z,3.80
2018-03-23T07:02:12.948Z,3.95
2018-03-23T07:07:15.458Z,3.84
2018-03-23T07:12:17.944Z,3.69
2018-03-23T07:17:20.517Z,3.68
2018-03-23T07:22:23.216Z,3.79
2018-03-23T07:27:25.753Z,3.76
2018-03-23T07:32:28.184Z,3.69
2018-03-23T07:37:30.641Z,3.74
2018-03-23T07:42:33.107Z,3.71
2018-03-23T07:47:35.564Z,3.78
2018-03-23T07:52:38.040Z,3.90
2018-03-23T07:57:41.145Z,3.72
2018-03-23T08:02:43.689Z,3.86
2018-03-23T08:07:46.420Z,3.94
2018-03-23T08:12:48.905Z,3.91
2018-03-23T08:17:51.415Z,3.85
2018-03-23T08:22:53.927Z,4.03
2018-03-23T08:27:56.414Z,3.99
2018-03-23T08:32:58.933Z,4.18
2018-03-23T08:38:01.403Z,4.62
2018-03-23T08:43:03.854Z,4.82
2018-03-23T08:48:06.355Z,5.05
2018-03-23T08:53:08.820Z,5.13
2018-03-23T08:58:11.322Z,5.20
2018-03-23T09:03:14.865Z,4.96
2018-03-23T09:08:17.425Z,5.04
2018-03-23T09:18:45.766Z,4.79
2018-03-23T09:23:48.278Z,4.72
2018-03-23T09:28:50.738Z,4.33
2018-03-23T09:33:53.243Z,3.99
2018-03-23T09:38:55.694Z,4.35
2018-03-23T09:43:58.158Z,4.38
2018-03-23T09:49:00.635Z,4.45
2018-03-23T09:54:03.112Z,4.73
2018-03-23T09:59:05.567Z,5.08
2018-03-23T10:04:08.177Z,5.17
2018-03-23T10:09:10.558Z,5.14
2018-03-23T10:14:13.021Z,5.72
2018-03-23T10:19:15.521Z,5.79
2018-03-23T10:24:18.034Z,6.19
2018-03-23T10:29:20.507Z,6.19
2018-03-23T10:34:23.025Z,5.79
2018-03-23T10:39:25.502Z,5.29
2018-03-23T10:44:27.977Z,5.02
2018-03-23T10:49:30.494Z,4.76
2018-03-23T10:54:33.035Z,5.08
2018-03-23T10:59:35.525Z,5.23
2018-03-23T11:04:38.005Z,4.99
2018-03-23T11:09:40.488Z,4.80
2018-03-23T11:14:42.989Z,4.68
2018-03-23T11:19:45.477Z,4.28
2018-03-23T11:24:47.975Z,4.14
2018-03-23T11:29:50.462Z,3.86
2018-03-23T11:34:53.182Z,4.06
2018-03-23T11:39:55.697Z,4.46
2018-03-23T11:44:58.155Z,4.72
2018-03-23T11:50:00.643Z,4.95
2018-03-23T11:55:03.126Z,5.04
2018-03-23T12:00:05.571Z,4.98
2018-03-23T12:05:08.125Z,4.62
2018-03-23T12:10:10.685Z,3.86
2018-03-23T12:15:13.174Z,3.76
2018-03-23T12:20:18.150Z,3.71
2018-03-23T12:25:21.829Z,4.13
2018-03-23T12:30:24.490Z,4.43
2018-03-23T12:35:29.231Z,4.54
2018-03-23T12:40:31.748Z,4.49
2018-03-23T12:45:34.284Z,4.76
2018-03-23T12:50:36.703Z,5.04
2018-03-23T12:55:39.169Z,5.18
2018-03-23T13:00:41.660Z,5.04
2018-03-23T13:05:44.163Z,4.93
2018-03-23T13:10:47.050Z,4.84
2018-03-23T13:15:49.563Z,5.01
2018-03-23T13:20:52.110Z,5.40
2018-03-23T13:25:54.587Z,5.47
2018-03-23T13:30:57.065Z,5.45
2018-03-23T13:35:59.559Z,5.40
2018-03-23T13:41:02.039Z,5.24
2018-03-23T13:46:05.882Z,5.27
2018-03-23T13:51:10.735Z,5.06
2018-03-23T13:56:17.691Z,4.81
2018-03-23T14:01:27.175Z,4.54
2018-03-23T14:06:32.163Z,4.71
2018-03-23T14:11:37.445Z,4.62
2018-03-23T14:16:43.307Z,4.45
2018-03-23T14:21:48.428Z,4.63
2018-03-23T14:26:51.041Z,4.74
2018-03-23T14:31:55.373Z,4.52
2018-03-23T14:36:59.702Z,4.45
2018-03-23T14:42:02.236Z,4.57
2018-03-23T14:47:04.695Z,4.54
2018-03-23T14:52:10.299Z,4.36
2018-03-23T14:57:14.879Z,4.35
2018-03-23T15:02:18.719Z,4.52
2018-03-23T15:07:23.304Z,4.62
2018-03-23T15:12:25.771Z,4.74
2018-03-23T15:17:30.578Z,4.52
2018-03-23T15:22:35.498Z,4.38
2018-03-23T15:27:39.470Z,4.35
2018-03-23T15:32:44.165Z,4.56
2018-03-23T15:37:50.022Z,4.63
2018-03-23T15:42:54.306Z,4.45
2018-03-23T15:48:00.514Z,4.68
2018-03-23T15:53:06.171Z,4.64
2018-03-23T15:58:08.996Z,4.56
2018-03-23T16:03:11.458Z,4.51
2018-03-23T16:08:14.104Z,4.41
2018-03-23T16:13:16.663Z,4.30
2018-03-23T16:18:31.662Z,4.11
2018-03-23T16:23:34.081Z,4.03
2018-03-23T16:28:36.563Z,3.99
2018-03-23T16:33:39.065Z,3.96
2018-03-23T16:38:42.224Z,3.99
2018-03-23T16:43:45.182Z,3.94
2018-03-23T16:48:48.325Z,3.96
2018-03-23T16:53:50.871Z,3.89
2018-03-23T16:58:53.342Z,3.84
2018-03-23T17:03:55.866Z,3.80
2018-03-23T17:08:59.301Z,3.70
2018-03-23T17:14:01.779Z,3.77
2018-03-23T17:19:04.246Z,3.74
2018-03-23T17:29:30.904Z,3.57
2018-03-23T17:34:33.401Z,3.52
2018-03-23T17:39:35.898Z,3.45
2018-03-23T17:44:38.360Z,3.39
2018-03-23T17:49:40.845Z,3.41
2018-03-23T17:54:43.411Z,3.31
2018-03-23T17:59:46.007Z,3.31
2018-03-23T18:04:48.574Z,3.26
2018-03-23T18:09:52.244Z,3.29
2018-03-23T18:14:54.740Z,3.28
2018-03-23T18:19:57.237Z,3.25
2018-03-23T18:24:59.857Z,3.21
2018-03-23T18:30:02.326Z,3.26
2018-03-23T18:35:04.984Z,3.20
2018-03-23T18:40:08.042Z,3.19
2018-03-23T18:45:11.468Z,3.22
2018-03-23T18:50:16.694Z,3.22
2018-03-23T18:55:19.812Z,3.18
2018-03-23T19:00:22.857Z,3.16
2018-03-23T19:05:25.552Z,3.12
2018-03-23T19:10:28.506Z,3.19
2018-03-23T19:15:31.295Z,3.14
2018-03-23T19:20:34.076Z,3.09
2018-03-23T19:25:36.600Z,3.01
2018-03-23T19:30:40.208Z,3.03
2018-03-23T19:35:42.684Z,2.99
2018-03-23T19:40:45.184Z,2.91
2018-03-23T19:45:47.678Z,2.89
2018-03-23T19:50:50.162Z,2.87
2018-03-23T19:55:52.626Z,2.96
2018-03-23T20:00:58.049Z,2.91
2018-03-23T20:06:01.523Z,2.95
2018-03-23T20:11:06.142Z,2.97
2018-03-23T20:16:10.932Z,2.88
2018-03-23T20:21:18.261Z,2.81
2018-03-23T20:26:23.244Z,2.80
2018-03-23T20:31:32.695Z,2.84
2018-03-23T20:36:37.650Z,2.80
2018-03-23T20:41:41.039Z,2.78
2018-03-23T20:46:46.378Z,2.77
2018-03-23T20:51:51.435Z,2.80
2018-03-23T20:56:56.670Z,2.80
2018-03-23T21:02:00.679Z,2.75
2018-03-23T21:07:03.603Z,2.84
2018-03-23T21:12:06.095Z,2.95
2018-03-23T21:17:08.676Z,3.00
2018-03-23T21:22:11.247Z,3.05
2018-03-23T21:27:14.497Z,3.11
2018-03-23T21:32:19.255Z,2.92
2018-03-23T21:37:24.037Z,2.90
2018-03-23T21:42:29.593Z,2.77
2018-03-23T21:47:34.320Z,2.79
2018-03-23T21:52:37.291Z,2.82
2018-03-23T21:57:40.030Z,2.73
2018-03-23T22:02:42.750Z,2.71
2018-03-23T22:07:45.303Z,2.77
2018-03-23T22:12:47.896Z,2.67
2018-03-23T22:17:50.386Z,2.67
2018-03-23T22:22:53.165Z,2.63
2018-03-23T22:27:55.690Z,2.50
2018-03-23T22:32:58.152Z,2.49
2018-03-23T22:38:01.323Z,2.52
2018-03-23T22:43:03.796Z,2.40
2018-03-23T22:48:06.383Z,2.40
2018-03-23T22:53:09.052Z,2.22
2018-03-23T22:58:11.555Z,2.29
2018-03-23T23:03:14.100Z,2.21
2018-03-23T23:08:16.795Z,2.14
2018-03-23T23:13:19.379Z,2.13
2018-03-23T23:18:21.883Z,2.11
2018-03-23T23:23:24.381Z,2.14
2018-03-23T23:28:27.020Z,2.14
2018-03-23T23:33:29.556Z,2.14
2018-03-23T23:38:32.088Z,2.07
2018-03-23T23:43:34.862Z,2.11
2018-03-23T23:48:37.360Z,2.21
2018-03-23T23:53:39.881Z,2.29
2018-03-23T23:58:42.385Z,2.31
